sensor_id;sensor_type;location;lat;lon;timestamp;P1;durP1;ratioP1;P2;durP2;ratioP2
74042;SDS011;62384;53.600;10.040;2022-07-23T00:00:33;3.63;;;1.42;;
74042;SDS011;62384;53.600;10.040;2022-07-23T00:02:58;1.88;;;0.70;;
74042;SDS011;62384;53.600;10.040;2022-07-23T00:05:24;3.08;;;1.02;;
74042;SDS011;62384;53.600;10.040;2022-07-23T00:07:49;1.58;;;0.75;;
74042;SDS011;62384;53.600;10.040;2022-07-23T00:10:14;4.07;;;1.00;;
74042;SDS011;62384;53.600;10.040;2022-07-23T00:12:40;4.57;;;0.93;;
74042;SDS011;62384;53.600;10.040;2022-07-23T00:15:06;2.08;;;0.80;;
74042;SDS011;62384;53.600;10.040;2022-07-23T00:17:32;2.58;;;0.80;;
74042;SDS011;62384;53.600;10.040;2022-07-23T00:19:57;1.75;;;0.93;;
74042;SDS011;62384;53.600;10.040;2022-07-23T00:22:23;2.80;;;0.90;;
74042;SDS011;62384;53.600;10.040;2022-07-23T00:24:52;3.00;;;0.95;;
74042;SDS011;62384;53.600;10.040;2022-07-23T00:27:18;1.65;;;0.90;;
74042;SDS011;62384;53.600;10.040;2022-07-23T00:29:43;2.97;;;0.93;;
74042;SDS011;62384;53.600;10.040;2022-07-23T00:32:08;2.85;;;0.90;;
74042;SDS011;62384;53.600;10.040;2022-07-23T00:34:34;2.85;;;0.75;;
74042;SDS011;62384;53.600;10.040;2022-07-23T00:36:59;2.28;;;0.80;;
74042;SDS011;62384;53.600;10.040;2022-07-23T00:39:25;1.40;;;0.85;;
74042;SDS011;62384;53.600;10.040;2022-07-23T00:41:50;5.55;;;0.88;;
74042;SDS011;62384;53.600;10.040;2022-07-23T00:44:23;0.98;;;0.80;;
74042;SDS011;62384;53.600;10.040;2022-07-23T00:46:51;1.33;;;0.80;;
74042;SDS011;62384;53.600;10.040;2022-07-23T00:49:22;2.03;;;0.90;;
74042;SDS011;62384;53.600;10.040;2022-07-23T00:51:49;1.70;;;0.68;;
74042;SDS011;62384;53.600;10.040;2022-07-23T00:54:15;5.45;;;0.70;;
74042;SDS011;62384;53.600;10.040;2022-07-23T00:56:42;2.13;;;0.90;;
74042;SDS011;62384;53.600;10.040;2022-07-23T00:59:08;1.65;;;1.13;;
74042;SDS011;62384;53.600;10.040;2022-07-23T01:01:34;4.97;;;0.90;;
74042;SDS011;62384;53.600;10.040;2022-07-23T01:03:59;2.47;;;0.80;;
74042;SDS011;62384;53.600;10.040;2022-07-23T01:06:24;1.13;;;0.63;;
74042;SDS011;62384;53.600;10.040;2022-07-23T01:08:50;0.98;;;0.68;;
74042;SDS011;62384;53.600;10.040;2022-07-23T01:11:15;4.38;;;0.90;;
74042;SDS011;62384;53.600;10.040;2022-07-23T01:13:43;1.77;;;0.63;;
74042;SDS011;62384;53.600;10.040;2022-07-23T01:16:08;3.17;;;0.90;;
74042;SDS011;62384;53.600;10.040;2022-07-23T01:18:34;2.53;;;1.00;;
74042;SDS011;62384;53.600;10.040;2022-07-23T01:20:59;2.08;;;0.90;;
74042;SDS011;62384;53.600;10.040;2022-07-23T01:23:24;2.63;;;0.88;;
74042;SDS011;62384;53.600;10.040;2022-07-23T01:25:53;3.33;;;1.10;;
74042;SDS011;62384;53.600;10.040;2022-07-23T01:28:19;1.58;;;0.88;;
74042;SDS011;62384;53.600;10.040;2022-07-23T01:30:45;2.58;;;0.60;;
74042;SDS011;62384;53.600;10.040;2022-07-23T01:33:12;3.38;;;1.05;;
74042;SDS011;62384;53.600;10.040;2022-07-23T01:35:37;4.90;;;1.20;;
74042;SDS011;62384;53.600;10.040;2022-07-23T01:38:03;1.95;;;0.75;;
74042;SDS011;62384;53.600;10.040;2022-07-23T01:40:28;1.38;;;0.68;;
74042;SDS011;62384;53.600;10.040;2022-07-23T01:42:53;2.22;;;0.80;;
74042;SDS011;62384;53.600;10.040;2022-07-23T01:45:19;5.35;;;0.80;;
74042;SDS011;62384;53.600;10.040;2022-07-23T01:47:44;1.67;;;0.70;;
74042;SDS011;62384;53.600;10.040;2022-07-23T01:50:10;2.78;;;0.77;;
74042;SDS011;62384;53.600;10.040;2022-07-23T01:52:35;3.80;;;0.85;;
74042;SDS011;62384;53.600;10.040;2022-07-23T01:55:00;3.78;;;0.80;;
74042;SDS011;62384;53.600;10.040;2022-07-23T01:57:26;4.38;;;1.00;;
74042;SDS011;62384;53.600;10.040;2022-07-23T01:59:51;2.20;;;0.85;;
74042;SDS011;62384;53.600;10.040;2022-07-23T02:02:16;1.23;;;0.70;;
74042;SDS011;62384;53.600;10.040;2022-07-23T02:04:42;0.90;;;0.65;;
74042;SDS011;62384;53.600;10.040;2022-07-23T02:07:07;0.70;;;0.63;;
74042;SDS011;62384;53.600;10.040;2022-07-23T02:09:32;2.33;;;0.80;;
74042;SDS011;62384;53.600;10.040;2022-07-23T02:11:58;2.95;;;1.00;;
74042;SDS011;62384;53.600;10.040;2022-07-23T02:14:24;4.75;;;0.85;;
74042;SDS011;62384;53.600;10.040;2022-07-23T02:16:50;3.95;;;0.88;;
74042;SDS011;62384;53.600;10.040;2022-07-23T02:19:16;1.10;;;0.85;;
74042;SDS011;62384;53.600;10.040;2022-07-23T02:21:41;1.65;;;0.60;;
74042;SDS011;62384;53.600;10.040;2022-07-23T02:24:06;3.03;;;0.70;;
74042;SDS011;62384;53.600;10.040;2022-07-23T02:26:32;2.97;;;0.70;;
74042;SDS011;62384;53.600;10.040;2022-07-23T02:28:59;1.40;;;0.60;;
74042;SDS011;62384;53.600;10.040;2022-07-23T02:31:25;1.83;;;0.80;;
74042;SDS011;62384;53.600;10.040;2022-07-23T02:33:50;2.05;;;0.90;;
74042;SDS011;62384;53.600;10.040;2022-07-23T02:36:16;2.85;;;0.77;;
74042;SDS011;62384;53.600;10.040;2022-07-23T02:38:41;3.50;;;0.85;;
74042;SDS011;62384;53.600;10.040;2022-07-23T02:41:07;3.78;;;0.70;;
74042;SDS011;62384;53.600;10.040;2022-07-23T02:43:32;1.85;;;0.50;;
74042;SDS011;62384;53.600;10.040;2022-07-23T02:45:57;1.00;;;0.80;;
74042;SDS011;62384;53.600;10.040;2022-07-23T02:48:22;1.83;;;0.70;;
74042;SDS011;62384;53.600;10.040;2022-07-23T02:50:48;2.05;;;0.57;;
74042;SDS011;62384;53.600;10.040;2022-07-23T02:53:13;3.90;;;1.00;;
74042;SDS011;62384;53.600;10.040;2022-07-23T02:55:38;1.75;;;0.90;;
74042;SDS011;62384;53.600;10.040;2022-07-23T02:58:04;1.30;;;0.80;;
74042;SDS011;62384;53.600;10.040;2022-07-23T03:00:29;1.17;;;0.90;;
74042;SDS011;62384;53.600;10.040;2022-07-23T03:02:55;2.00;;;1.00;;
74042;SDS011;62384;53.600;10.040;2022-07-23T03:05:20;2.85;;;1.15;;
74042;SDS011;62384;53.600;10.040;2022-07-23T03:07:45;1.27;;;0.77;;
74042;SDS011;62384;53.600;10.040;2022-07-23T03:10:10;2.97;;;0.85;;
74042;SDS011;62384;53.600;10.040;2022-07-23T03:12:36;3.63;;;0.90;;
74042;SDS011;62384;53.600;10.040;2022-07-23T03:15:01;5.55;;;1.08;;
74042;SDS011;62384;53.600;10.040;2022-07-23T03:17:26;1.50;;;0.82;;
74042;SDS011;62384;53.600;10.040;2022-07-23T03:19:52;2.22;;;0.90;;
74042;SDS011;62384;53.600;10.040;2022-07-23T03:22:17;3.00;;;0.93;;
74042;SDS011;62384;53.600;10.040;2022-07-23T03:24:42;1.92;;;0.82;;
74042;SDS011;62384;53.600;10.040;2022-07-23T03:27:23;2.50;;;1.42;;
74042;SDS011;62384;53.600;10.040;2022-07-23T03:29:50;3.92;;;1.00;;
74042;SDS011;62384;53.600;10.040;2022-07-23T03:32:16;1.85;;;1.23;;
74042;SDS011;62384;53.600;10.040;2022-07-23T03:34:42;2.25;;;0.90;;
74042;SDS011;62384;53.600;10.040;2022-07-23T03:37:07;3.90;;;1.17;;
74042;SDS011;62384;53.600;10.040;2022-07-23T03:39:32;1.77;;;0.88;;
74042;SDS011;62384;53.600;10.040;2022-07-23T03:41:58;1.77;;;1.00;;
74042;SDS011;62384;53.600;10.040;2022-07-23T03:44:23;12.25;;;1.85;;
74042;SDS011;62384;53.600;10.040;2022-07-23T03:46:48;1.85;;;0.90;;
74042;SDS011;62384;53.600;10.040;2022-07-23T03:49:14;2.90;;;1.20;;
74042;SDS011;62384;53.600;10.040;2022-07-23T03:51:39;4.60;;;1.10;;
74042;SDS011;62384;53.600;10.040;2022-07-23T03:54:04;2.67;;;0.90;;
74042;SDS011;62384;53.600;10.040;2022-07-23T03:56:30;2.25;;;1.00;;
74042;SDS011;62384;53.600;10.040;2022-07-23T03:58:55;3.67;;;0.90;;
74042;SDS011;62384;53.600;10.040;2022-07-23T04:01:20;2.53;;;0.65;;
74042;SDS011;62384;53.600;10.040;2022-07-23T04:03:46;2.00;;;0.85;;
74042;SDS011;62384;53.600;10.040;2022-07-23T04:06:11;1.17;;;0.80;;
74042;SDS011;62384;53.600;10.040;2022-07-23T04:08:37;3.63;;;1.45;;
74042;SDS011;62384;53.600;10.040;2022-07-23T04:11:02;2.70;;;1.02;;
74042;SDS011;62384;53.600;10.040;2022-07-23T04:13:27;4.68;;;1.10;;
74042;SDS011;62384;53.600;10.040;2022-07-23T04:15:52;4.82;;;1.10;;
74042;SDS011;62384;53.600;10.040;2022-07-23T04:18:18;3.75;;;1.05;;
74042;SDS011;62384;53.600;10.040;2022-07-23T04:20:43;1.98;;;1.08;;
74042;SDS011;62384;53.600;10.040;2022-07-23T04:23:09;8.13;;;1.10;;
74042;SDS011;62384;53.600;10.040;2022-07-23T04:25:35;3.72;;;1.10;;
74042;SDS011;62384;53.600;10.040;2022-07-23T04:28:00;3.08;;;1.23;;
74042;SDS011;62384;53.600;10.040;2022-07-23T04:30:26;2.53;;;1.00;;
74042;SDS011;62384;53.600;10.040;2022-07-23T04:32:52;5.15;;;1.52;;
74042;SDS011;62384;53.600;10.040;2022-07-23T04:35:17;4.78;;;0.98;;
74042;SDS011;62384;53.600;10.040;2022-07-23T04:37:42;5.57;;;1.60;;
74042;SDS011;62384;53.600;10.040;2022-07-23T04:40:08;3.75;;;0.90;;
74042;SDS011;62384;53.600;10.040;2022-07-23T04:42:33;2.13;;;1.00;;
74042;SDS011;62384;53.600;10.040;2022-07-23T04:44:59;2.90;;;1.48;;
74042;SDS011;62384;53.600;10.040;2022-07-23T04:47:24;3.97;;;1.48;;
74042;SDS011;62384;53.600;10.040;2022-07-23T04:49:49;3.03;;;1.10;;
74042;SDS011;62384;53.600;10.040;2022-07-23T04:52:16;3.70;;;1.10;;
74042;SDS011;62384;53.600;10.040;2022-07-23T04:55:04;4.53;;;1.10;;
74042;SDS011;62384;53.600;10.040;2022-07-23T04:57:29;3.17;;;1.55;;
74042;SDS011;62384;53.600;10.040;2022-07-23T04:59:55;4.25;;;1.38;;
74042;SDS011;62384;53.600;10.040;2022-07-23T05:02:20;6.40;;;1.30;;
74042;SDS011;62384;53.600;10.040;2022-07-23T05:04:46;4.50;;;1.40;;
74042;SDS011;62384;53.600;10.040;2022-07-23T05:07:11;2.28;;;1.20;;
74042;SDS011;62384;53.600;10.040;2022-07-23T05:09:36;5.57;;;1.17;;
74042;SDS011;62384;53.600;10.040;2022-07-23T05:12:02;3.42;;;1.38;;
74042;SDS011;62384;53.600;10.040;2022-07-23T05:14:27;2.75;;;1.27;;
74042;SDS011;62384;53.600;10.040;2022-07-23T05:16:53;1.83;;;1.05;;
74042;SDS011;62384;53.600;10.040;2022-07-23T05:19:18;3.17;;;1.50;;
74042;SDS011;62384;53.600;10.040;2022-07-23T05:21:43;2.83;;;1.10;;
74042;SDS011;62384;53.600;10.040;2022-07-23T05:24:08;3.13;;;1.00;;
74042;SDS011;62384;53.600;10.040;2022-07-23T05:26:34;1.33;;;1.10;;
74042;SDS011;62384;53.600;10.040;2022-07-23T05:28:59;3.05;;;1.02;;
74042;SDS011;62384;53.600;10.040;2022-07-23T05:31:24;1.20;;;0.75;;
74042;SDS011;62384;53.600;10.040;2022-07-23T05:33:50;2.00;;;1.10;;
74042;SDS011;62384;53.600;10.040;2022-07-23T05:36:15;3.58;;;0.93;;
74042;SDS011;62384;53.600;10.040;2022-07-23T05:38:40;1.08;;;0.70;;
74042;SDS011;62384;53.600;10.040;2022-07-23T05:41:06;2.17;;;0.90;;
74042;SDS011;62384;53.600;10.040;2022-07-23T05:43:31;2.55;;;0.93;;
74042;SDS011;62384;53.600;10.040;2022-07-23T05:45:56;1.88;;;0.80;;
74042;SDS011;62384;53.600;10.040;2022-07-23T05:48:22;1.52;;;0.80;;
74042;SDS011;62384;53.600;10.040;2022-07-23T05:50:47;0.70;;;0.57;;
74042;SDS011;62384;53.600;10.040;2022-07-23T05:53:13;1.67;;;0.70;;
74042;SDS011;62384;53.600;10.040;2022-07-23T05:55:38;1.38;;;0.90;;
74042;SDS011;62384;53.600;10.040;2022-07-23T05:58:04;4.22;;;0.73;;
74042;SDS011;62384;53.600;10.040;2022-07-23T06:00:29;3.35;;;0.80;;
74042;SDS011;62384;53.600;10.040;2022-07-23T06:02:55;4.32;;;0.70;;
74042;SDS011;62384;53.600;10.040;2022-07-23T06:05:21;1.30;;;0.80;;
74042;SDS011;62384;53.600;10.040;2022-07-23T06:07:47;5.45;;;0.80;;
74042;SDS011;62384;53.600;10.040;2022-07-23T06:10:16;4.00;;;1.08;;
74042;SDS011;62384;53.600;10.040;2022-07-23T06:12:42;2.47;;;0.65;;
74042;SDS011;62384;53.600;10.040;2022-07-23T06:15:07;6.45;;;0.90;;
74042;SDS011;62384;53.600;10.040;2022-07-23T06:17:34;2.65;;;1.10;;
74042;SDS011;62384;53.600;10.040;2022-07-23T06:19:59;2.70;;;0.95;;
74042;SDS011;62384;53.600;10.040;2022-07-23T06:22:24;6.95;;;1.10;;
74042;SDS011;62384;53.600;10.040;2022-07-23T06:24:50;3.33;;;0.93;;
74042;SDS011;62384;53.600;10.040;2022-07-23T06:27:16;4.10;;;0.80;;
74042;SDS011;62384;53.600;10.040;2022-07-23T06:29:42;1.95;;;1.20;;
74042;SDS011;62384;53.600;10.040;2022-07-23T06:32:07;1.23;;;0.73;;
74042;SDS011;62384;53.600;10.040;2022-07-23T06:34:36;2.35;;;0.70;;
74042;SDS011;62384;53.600;10.040;2022-07-23T06:37:01;1.85;;;0.93;;
74042;SDS011;62384;53.600;10.040;2022-07-23T06:39:27;3.97;;;0.70;;
74042;SDS011;62384;53.600;10.040;2022-07-23T06:41:52;1.60;;;0.60;;
74042;SDS011;62384;53.600;10.040;2022-07-23T06:44:17;3.22;;;0.80;;
74042;SDS011;62384;53.600;10.040;2022-07-23T06:46:43;0.85;;;0.65;;
74042;SDS011;62384;53.600;10.040;2022-07-23T06:49:09;3.47;;;0.55;;
74042;SDS011;62384;53.600;10.040;2022-07-23T06:51:34;2.47;;;1.45;;
74042;SDS011;62384;53.600;10.040;2022-07-23T06:53:59;2.45;;;0.85;;
74042;SDS011;62384;53.600;10.040;2022-07-23T06:56:25;1.48;;;0.73;;
74042;SDS011;62384;53.600;10.040;2022-07-23T06:58:50;1.73;;;0.70;;
74042;SDS011;62384;53.600;10.040;2022-07-23T07:01:15;1.88;;;1.13;;
74042;SDS011;62384;53.600;10.040;2022-07-23T07:03:41;1.17;;;0.70;;
74042;SDS011;62384;53.600;10.040;2022-07-23T07:06:06;2.55;;;0.52;;
74042;SDS011;62384;53.600;10.040;2022-07-23T07:08:32;2.42;;;0.50;;
74042;SDS011;62384;53.600;10.040;2022-07-23T07:11:00;1.88;;;0.60;;
74042;SDS011;62384;53.600;10.040;2022-07-23T07:13:25;2.88;;;0.70;;
74042;SDS011;62384;53.600;10.040;2022-07-23T07:15:50;2.22;;;0.60;;
74042;SDS011;62384;53.600;10.040;2022-07-23T07:18:16;0.52;;;0.47;;
74042;SDS011;62384;53.600;10.040;2022-07-23T07:20:41;0.70;;;0.47;;
74042;SDS011;62384;53.600;10.040;2022-07-23T07:23:07;2.88;;;0.80;;
74042;SDS011;62384;53.600;10.040;2022-07-23T07:25:32;2.33;;;0.52;;
74042;SDS011;62384;53.600;10.040;2022-07-23T07:27:57;0.73;;;0.52;;
74042;SDS011;62384;53.600;10.040;2022-07-23T07:30:23;1.77;;;0.70;;
74042;SDS011;62384;53.600;10.040;2022-07-23T07:32:48;1.83;;;0.60;;
74042;SDS011;62384;53.600;10.040;2022-07-23T07:35:13;6.05;;;0.70;;
74042;SDS011;62384;53.600;10.040;2022-07-23T07:37:38;1.38;;;0.60;;
74042;SDS011;62384;53.600;10.040;2022-07-23T07:40:04;0.93;;;0.60;;
74042;SDS011;62384;53.600;10.040;2022-07-23T07:42:30;0.70;;;0.52;;
74042;SDS011;62384;53.600;10.040;2022-07-23T07:44:57;1.77;;;0.40;;
74042;SDS011;62384;53.600;10.040;2022-07-23T07:47:22;3.13;;;0.40;;
74042;SDS011;62384;53.600;10.040;2022-07-23T07:49:47;0.70;;;0.50;;
74042;SDS011;62384;53.600;10.040;2022-07-23T07:52:12;1.10;;;0.40;;
74042;SDS011;62384;53.600;10.040;2022-07-23T07:54:38;1.52;;;0.68;;
74042;SDS011;62384;53.600;10.040;2022-07-23T07:57:03;0.90;;;0.43;;
74042;SDS011;62384;53.600;10.040;2022-07-23T07:59:28;3.05;;;0.40;;
74042;SDS011;62384;53.600;10.040;2022-07-23T08:01:54;1.05;;;0.40;;
74042;SDS011;62384;53.600;10.040;2022-07-23T08:04:19;1.73;;;0.40;;
74042;SDS011;62384;53.600;10.040;2022-07-23T08:06:45;1.33;;;0.40;;
74042;SDS011;62384;53.600;10.040;2022-07-23T08:09:10;1.52;;;0.55;;
74042;SDS011;62384;53.600;10.040;2022-07-23T08:11:35;1.08;;;0.28;;
74042;SDS011;62384;53.600;10.040;2022-07-23T08:14:01;6.30;;;0.60;;
74042;SDS011;62384;53.600;10.040;2022-07-23T08:16:26;1.60;;;0.50;;
74042;SDS011;62384;53.600;10.040;2022-07-23T08:18:51;1.15;;;0.50;;
74042;SDS011;62384;53.600;10.040;2022-07-23T08:21:17;1.10;;;0.40;;
74042;SDS011;62384;53.600;10.040;2022-07-23T08:23:42;1.23;;;0.63;;
74042;SDS011;62384;53.600;10.040;2022-07-23T08:26:07;0.77;;;0.50;;
74042;SDS011;62384;53.600;10.040;2022-07-23T08:28:33;0.60;;;0.40;;
74042;SDS011;62384;53.600;10.040;2022-07-23T08:30:59;0.57;;;0.52;;
74042;SDS011;62384;53.600;10.040;2022-07-23T08:33:25;2.25;;;0.40;;
74042;SDS011;62384;53.600;10.040;2022-07-23T08:35:51;0.82;;;0.50;;
74042;SDS011;62384;53.600;10.040;2022-07-23T08:38:18;0.55;;;0.50;;
74042;SDS011;62384;53.600;10.040;2022-07-23T08:40:47;2.15;;;0.60;;
74042;SDS011;62384;53.600;10.040;2022-07-23T08:43:21;0.88;;;0.30;;
74042;SDS011;62384;53.600;10.040;2022-07-23T08:45:49;0.57;;;0.32;;
74042;SDS011;62384;53.600;10.040;2022-07-23T08:48:20;2.72;;;0.63;;
74042;SDS011;62384;53.600;10.040;2022-07-23T08:50:48;1.48;;;0.50;;
74042;SDS011;62384;53.600;10.040;2022-07-23T08:53:14;1.02;;;0.30;;
74042;SDS011;62384;53.600;10.040;2022-07-23T08:55:44;0.52;;;0.30;;
74042;SDS011;62384;53.600;10.040;2022-07-23T08:58:21;1.55;;;0.30;;
74042;SDS011;62384;53.600;10.040;2022-07-23T09:00:47;0.77;;;0.25;;
74042;SDS011;62384;53.600;10.040;2022-07-23T09:03:20;0.30;;;0.20;;
74042;SDS011;62384;53.600;10.040;2022-07-23T09:05:48;0.30;;;0.22;;
74042;SDS011;62384;53.600;10.040;2022-07-23T09:08:17;0.90;;;0.47;;
74042;SDS011;62384;53.600;10.040;2022-07-23T09:16:09;0.50;;;0.30;;
74042;SDS011;62384;53.600;10.040;2022-07-23T09:21:29;1.20;;;0.30;;
74042;SDS011;62384;53.600;10.040;2022-07-23T09:27:04;1.85;;;0.30;;
74042;SDS011;62384;53.600;10.040;2022-07-23T09:29:20;2.20;;;0.20;;
74042;SDS011;62384;53.600;10.040;2022-07-23T09:32:00;3.42;;;0.38;;
74042;SDS011;62384;53.600;10.040;2022-07-23T09:34:34;0.73;;;0.40;;
74042;SDS011;62384;53.600;10.040;2022-07-23T09:37:18;0.90;;;0.30;;
74042;SDS011;62384;53.600;10.040;2022-07-23T09:39:45;1.98;;;0.77;;
74042;SDS011;62384;53.600;10.040;2022-07-23T09:42:16;0.77;;;0.43;;
74042;SDS011;62384;53.600;10.040;2022-07-23T09:44:47;2.38;;;0.52;;
74042;SDS011;62384;53.600;10.040;2022-07-23T09:47:14;1.60;;;0.50;;
74042;SDS011;62384;53.600;10.040;2022-07-23T09:49:40;1.60;;;0.40;;
74042;SDS011;62384;53.600;10.040;2022-07-23T09:52:25;0.98;;;0.80;;
74042;SDS011;62384;53.600;10.040;2022-07-23T09:54:59;1.75;;;0.45;;
74042;SDS011;62384;53.600;10.040;2022-07-23T09:57:29;1.02;;;0.47;;
74042;SDS011;62384;53.600;10.040;2022-07-23T09:59:58;0.80;;;0.55;;
74042;SDS011;62384;53.600;10.040;2022-07-23T10:02:25;2.85;;;0.57;;
74042;SDS011;62384;53.600;10.040;2022-07-23T10:04:53;1.15;;;0.70;;
74042;SDS011;62384;53.600;10.040;2022-07-23T10:07:22;0.98;;;0.60;;
74042;SDS011;62384;53.600;10.040;2022-07-23T10:09:48;0.90;;;0.60;;
74042;SDS011;62384;53.600;10.040;2022-07-23T10:12:17;1.90;;;0.50;;
74042;SDS011;62384;53.600;10.040;2022-07-23T10:14:46;0.68;;;0.38;;
74042;SDS011;62384;53.600;10.040;2022-07-23T10:17:13;0.40;;;0.35;;
74042;SDS011;62384;53.600;10.040;2022-07-23T10:19:41;0.73;;;0.40;;
74042;SDS011;62384;53.600;10.040;2022-07-23T10:30:15;5.10;;;0.40;;
74042;SDS011;62384;53.600;10.040;2022-07-23T10:38:12;0.17;;;0.17;;
74042;SDS011;62384;53.600;10.040;2022-07-23T10:40:56;0.65;;;0.30;;
74042;SDS011;62384;53.600;10.040;2022-07-23T10:43:25;0.77;;;0.40;;
74042;SDS011;62384;53.600;10.040;2022-07-23T10:45:52;0.75;;;0.20;;
74042;SDS011;62384;53.600;10.040;2022-07-23T10:48:18;1.90;;;0.35;;
74042;SDS011;62384;53.600;10.040;2022-07-23T10:51:05;0.55;;;0.20;;
74042;SDS011;62384;53.600;10.040;2022-07-23T10:56:15;0.30;;;0.20;;
74042;SDS011;62384;53.600;10.040;2022-07-23T10:58:48;1.73;;;0.40;;
74042;SDS011;62384;53.600;10.040;2022-07-23T11:03:58;1.58;;;0.45;;
74042;SDS011;62384;53.600;10.040;2022-07-23T11:06:24;2.70;;;0.50;;
74042;SDS011;62384;53.600;10.040;2022-07-23T11:09:23;1.48;;;0.65;;
74042;SDS011;62384;53.600;10.040;2022-07-23T11:11:48;4.63;;;0.35;;
74042;SDS011;62384;53.600;10.040;2022-07-23T11:14:14;5.88;;;1.35;;
74042;SDS011;62384;53.600;10.040;2022-07-23T11:16:46;2.67;;;0.47;;
74042;SDS011;62384;53.600;10.040;2022-07-23T11:19:13;1.35;;;0.30;;
74042;SDS011;62384;53.600;10.040;2022-07-23T11:21:40;1.27;;;0.40;;
74042;SDS011;62384;53.600;10.040;2022-07-23T11:24:07;0.47;;;0.40;;
74042;SDS011;62384;53.600;10.040;2022-07-23T11:32:00;1.13;;;0.20;;
74042;SDS011;62384;53.600;10.040;2022-07-23T11:34:43;1.38;;;0.45;;
74042;SDS011;62384;53.600;10.040;2022-07-23T11:37:12;0.70;;;0.30;;
74042;SDS011;62384;53.600;10.040;2022-07-23T11:39:52;0.70;;;0.30;;
74042;SDS011;62384;53.600;10.040;2022-07-23T11:42:22;4.78;;;0.40;;
74042;SDS011;62384;53.600;10.040;2022-07-23T11:44:49;0.65;;;0.20;;
74042;SDS011;62384;53.600;10.040;2022-07-23T11:47:14;1.55;;;0.40;;
74042;SDS011;62384;53.600;10.040;2022-07-23T11:49:51;0.88;;;0.20;;
74042;SDS011;62384;53.600;10.040;2022-07-23T11:52:18;1.70;;;0.45;;
74042;SDS011;62384;53.600;10.040;2022-07-23T11:58:03;1.50;;;0.32;;
74042;SDS011;62384;53.600;10.040;2022-07-23T12:00:30;3.45;;;0.65;;
74042;SDS011;62384;53.600;10.040;2022-07-23T12:03:00;6.25;;;0.52;;
74042;SDS011;62384;53.600;10.040;2022-07-23T12:05:29;0.57;;;0.30;;
74042;SDS011;62384;53.600;10.040;2022-07-23T12:07:57;0.77;;;0.20;;
74042;SDS011;62384;53.600;10.040;2022-07-23T12:12:50;0.65;;;0.50;;
74042;SDS011;62384;53.600;10.040;2022-07-23T12:15:17;0.40;;;0.30;;
74042;SDS011;62384;53.600;10.040;2022-07-23T12:17:45;1.70;;;0.40;;
74042;SDS011;62384;53.600;10.040;2022-07-23T12:20:14;2.63;;;0.40;;
74042;SDS011;62384;53.600;10.040;2022-07-23T12:22:47;2.55;;;0.40;;
74042;SDS011;62384;53.600;10.040;2022-07-23T12:25:18;2.50;;;0.70;;
74042;SDS011;62384;53.600;10.040;2022-07-23T12:27:45;0.90;;;0.40;;
74042;SDS011;62384;53.600;10.040;2022-07-23T12:30:45;2.00;;;0.50;;
74042;SDS011;62384;53.600;10.040;2022-07-23T12:33:03;1.23;;;0.40;;
74042;SDS011;62384;53.600;10.040;2022-07-23T12:35:31;1.98;;;0.40;;
74042;SDS011;62384;53.600;10.040;2022-07-23T12:38:00;1.20;;;0.45;;
74042;SDS011;62384;53.600;10.040;2022-07-23T12:40:28;1.05;;;0.50;;
74042;SDS011;62384;53.600;10.040;2022-07-23T12:43:03;1.02;;;0.38;;
74042;SDS011;62384;53.600;10.040;2022-07-23T12:48:15;2.55;;;0.40;;
74042;SDS011;62384;53.600;10.040;2022-07-23T12:53:17;0.30;;;0.30;;
74042;SDS011;62384;53.600;10.040;2022-07-23T12:55:44;0.30;;;0.30;;
74042;SDS011;62384;53.600;10.040;2022-07-23T12:58:18;4.25;;;0.40;;
74042;SDS011;62384;53.600;10.040;2022-07-23T13:05:47;2.15;;;0.50;;
74042;SDS011;62384;53.600;10.040;2022-07-23T13:08:12;4.20;;;0.47;;
74042;SDS011;62384;53.600;10.040;2022-07-23T13:10:38;0.93;;;0.20;;
74042;SDS011;62384;53.600;10.040;2022-07-23T13:13:07;0.85;;;0.30;;
74042;SDS011;62384;53.600;10.040;2022-07-23T13:15:35;4.47;;;0.38;;
74042;SDS011;62384;53.600;10.040;2022-07-23T13:18:01;0.88;;;0.32;;
74042;SDS011;62384;53.600;10.040;2022-07-23T13:20:26;3.47;;;0.50;;
74042;SDS011;62384;53.600;10.040;2022-07-23T13:22:51;1.48;;;0.63;;
74042;SDS011;62384;53.600;10.040;2022-07-23T13:25:18;1.83;;;0.57;;
74042;SDS011;62384;53.600;10.040;2022-07-23T13:27:44;0.38;;;0.25;;
74042;SDS011;62384;53.600;10.040;2022-07-23T13:30:09;2.05;;;0.57;;
74042;SDS011;62384;53.600;10.040;2022-07-23T13:32:35;4.95;;;1.58;;
74042;SDS011;62384;53.600;10.040;2022-07-23T13:35:01;3.78;;;1.23;;
74042;SDS011;62384;53.600;10.040;2022-07-23T13:37:26;3.55;;;1.38;;
74042;SDS011;62384;53.600;10.040;2022-07-23T13:39:52;1.67;;;0.40;;
74042;SDS011;62384;53.600;10.040;2022-07-23T13:42:17;0.68;;;0.63;;
74042;SDS011;62384;53.600;10.040;2022-07-23T13:44:42;2.15;;;0.50;;
74042;SDS011;62384;53.600;10.040;2022-07-23T13:47:08;2.63;;;0.40;;
74042;SDS011;62384;53.600;10.040;2022-07-23T13:49:33;0.98;;;0.57;;
74042;SDS011;62384;53.600;10.040;2022-07-23T13:51:59;0.95;;;0.40;;
74042;SDS011;62384;53.600;10.040;2022-07-23T13:54:24;2.20;;;0.60;;
74042;SDS011;62384;53.600;10.040;2022-07-23T13:56:50;1.13;;;0.57;;
74042;SDS011;62384;53.600;10.040;2022-07-23T13:59:16;1.60;;;0.52;;
74042;SDS011;62384;53.600;10.040;2022-07-23T14:01:42;0.70;;;0.52;;
74042;SDS011;62384;53.600;10.040;2022-07-23T14:04:09;1.90;;;0.50;;
74042;SDS011;62384;53.600;10.040;2022-07-23T14:06:34;2.67;;;0.50;;
74042;SDS011;62384;53.600;10.040;2022-07-23T14:09:00;2.60;;;0.70;;
74042;SDS011;62384;53.600;10.040;2022-07-23T14:11:25;0.50;;;0.50;;
74042;SDS011;62384;53.600;10.040;2022-07-23T14:13:51;1.70;;;0.50;;
74042;SDS011;62384;53.600;10.040;2022-07-23T14:16:16;3.67;;;1.55;;
74042;SDS011;62384;53.600;10.040;2022-07-23T14:18:42;4.15;;;0.43;;
74042;SDS011;62384;53.600;10.040;2022-07-23T14:21:07;2.20;;;0.73;;
74042;SDS011;62384;53.600;10.040;2022-07-23T14:23:32;1.75;;;0.20;;
74042;SDS011;62384;53.600;10.040;2022-07-23T14:25:58;1.58;;;0.40;;
74042;SDS011;62384;53.600;10.040;2022-07-23T14:28:24;5.25;;;0.40;;
74042;SDS011;62384;53.600;10.040;2022-07-23T14:30:49;0.57;;;0.30;;
74042;SDS011;62384;53.600;10.040;2022-07-23T14:33:16;2.05;;;0.40;;
74042;SDS011;62384;53.600;10.040;2022-07-23T14:35:41;0.68;;;0.35;;
74042;SDS011;62384;53.600;10.040;2022-07-23T14:38:06;1.05;;;0.30;;
74042;SDS011;62384;53.600;10.040;2022-07-23T14:40:32;2.03;;;0.90;;
74042;SDS011;62384;53.600;10.040;2022-07-23T14:42:57;1.52;;;0.40;;
74042;SDS011;62384;53.600;10.040;2022-07-23T14:45:22;3.03;;;0.95;;
74042;SDS011;62384;53.600;10.040;2022-07-23T14:47:47;3.03;;;0.77;;
74042;SDS011;62384;53.600;10.040;2022-07-23T14:50:13;4.35;;;1.10;;
74042;SDS011;62384;53.600;10.040;2022-07-23T14:52:39;4.35;;;1.20;;
74042;SDS011;62384;53.600;10.040;2022-07-23T14:55:05;4.38;;;1.50;;
74042;SDS011;62384;53.600;10.040;2022-07-23T14:57:30;3.20;;;1.30;;
74042;SDS011;62384;53.600;10.040;2022-07-23T14:59:56;5.03;;;1.95;;
74042;SDS011;62384;53.600;10.040;2022-07-23T15:02:21;4.03;;;1.40;;
74042;SDS011;62384;53.600;10.040;2022-07-23T15:04:46;4.18;;;1.20;;
74042;SDS011;62384;53.600;10.040;2022-07-23T15:07:12;2.88;;;0.93;;
74042;SDS011;62384;53.600;10.040;2022-07-23T15:09:37;2.17;;;0.90;;
74042;SDS011;62384;53.600;10.040;2022-07-23T15:12:03;2.03;;;1.08;;
74042;SDS011;62384;53.600;10.040;2022-07-23T15:14:29;2.97;;;1.30;;
74042;SDS011;62384;53.600;10.040;2022-07-23T15:16:54;3.10;;;0.98;;
74042;SDS011;62384;53.600;10.040;2022-07-23T15:19:20;1.23;;;0.73;;
74042;SDS011;62384;53.600;10.040;2022-07-23T15:21:45;1.80;;;0.65;;